aviador You're here:

SARL Decoded Metar

PASO DE LOS LIBRES in ARGENTINA
Report Time2018-01-21 08:00:00
UTC Time2018-01-21 08:31:59
Flight Rules mvfr MVFR
Wind140° at 06 kt
W.Decomp.*RWY 18: 5.2 kt HW 2.9 kt LCW
W.Rank140° ranks 3
Current wind is below 140° avg. (9.6)
Visibility5000 m
Phenomena:Thuderstorm Rain
Clouds:Scattered 012 Hf
Overcast 040 Hf
Few CB 045 Hf
Expected CloudBase > 400 ft AGL from Temp-Dew spread
Ceiling4,000 ft
Temp21°C (ISA +6)
Dew Point20°C (94% RH)
QNH1009 hPa
Density Alt1,427 ft
Elevation230 ft
Report Wrong Elevation
Raw Report
METAR SARL 210800Z 14006KT 5000 TSRA SCT012 OVC040 FEW045CB 21/20 Q1009=

Extra information for SARL:More info

Metar Taf Metar & Taf Last 4 Metars F.Rules Stats Wind Profile Meteogram Temp Stats Airport Information Weather charts Add Link Nearby VenuesMetar ALERT Operation Metar Decoded Social comments